createdAt,value
2023-05-21T00:01:48.508Z,12.20
2023-05-21T00:04:15.710Z,12.20
2023-05-21T00:06:42.593Z,12.20
2023-05-21T00:09:09.602Z,12.20
2023-05-21T00:11:36.503Z,12.20
2023-05-21T00:14:03.441Z,12.30
2023-05-21T00:16:30.477Z,12.20
2023-05-21T00:18:58.156Z,12.20
2023-05-21T00:21:26.055Z,12.20
2023-05-21T00:23:56.820Z,12.20
2023-05-21T00:26:26.586Z,12.20
2023-05-21T00:28:57.082Z,12.10
2023-05-21T00:31:24.111Z,12.00
2023-05-21T00:33:51.102Z,11.90
2023-05-21T00:36:18.007Z,11.90
2023-05-21T00:38:45.692Z,11.90
2023-05-21T00:41:12.816Z,11.80
2023-05-21T00:43:42.460Z,11.70
2023-05-21T00:46:16.580Z,11.70
2023-05-21T00:48:47.326Z,11.60
2023-05-21T00:51:14.529Z,11.60
2023-05-21T00:53:41.559Z,11.60
2023-05-21T00:56:08.574Z,11.60
2023-05-21T00:58:35.454Z,11.60
2023-05-21T01:01:06.942Z,11.50
2023-05-21T01:03:38.520Z,11.50
2023-05-21T01:06:06.474Z,11.50
2023-05-21T01:08:35.001Z,11.50
2023-05-21T01:11:04.773Z,11.50
2023-05-21T01:13:31.877Z,11.50
2023-05-21T01:15:59.270Z,11.40
2023-05-21T01:18:26.245Z,11.40
2023-05-21T01:20:53.726Z,11.40
2023-05-21T01:23:20.947Z,11.30
2023-05-21T01:25:47.868Z,11.30
2023-05-21T01:28:14.744Z,11.30
2023-05-21T01:30:42.193Z,11.30
2023-05-21T01:33:21.253Z,11.20
2023-05-21T01:35:58.530Z,11.20
2023-05-21T01:38:41.423Z,11.20
2023-05-21T01:41:10.490Z,11.20
2023-05-21T01:43:39.221Z,11.20
2023-05-21T01:46:06.565Z,11.20
2023-05-21T01:48:33.459Z,11.20
2023-05-21T01:51:01.964Z,11.20
2023-05-21T01:53:28.929Z,11.10
2023-05-21T01:55:55.931Z,11.10
2023-05-21T01:58:24.190Z,11.10
2023-05-21T02:00:51.204Z,11.10
2023-05-21T02:03:19.407Z,11.10
2023-05-21T02:05:47.119Z,11.10
2023-05-21T02:08:15.310Z,11.10
2023-05-21T02:10:42.355Z,11.10
2023-05-21T02:13:09.252Z,11.10
2023-05-21T02:15:36.392Z,11.00
2023-05-21T02:18:03.988Z,10.90
2023-05-21T02:20:31.364Z,10.80
2023-05-21T02:22:58.316Z,10.70
2023-05-21T02:25:25.169Z,10.80
2023-05-21T02:27:56.752Z,10.70
2023-05-21T02:30:23.904Z,10.70
2023-05-21T02:32:50.874Z,10.60
2023-05-21T02:35:17.859Z,10.60
2023-05-21T02:37:44.781Z,10.60
2023-05-21T02:40:11.937Z,10.60
2023-05-21T02:42:40.269Z,10.60
2023-05-21T02:45:10.102Z,10.60
2023-05-21T02:47:38.694Z,10.60
2023-05-21T02:50:08.297Z,10.50
2023-05-21T02:52:41.828Z,10.50
2023-05-21T02:55:09.982Z,10.40
2023-05-21T02:57:36.931Z,10.40
2023-05-21T03:00:06.107Z,10.40
2023-05-21T03:02:33.924Z,10.40
2023-05-21T03:05:00.929Z,10.40
2023-05-21T03:07:27.822Z,10.40
2023-05-21T03:09:55.043Z,10.50
2023-05-21T03:12:21.985Z,10.40
2023-05-21T03:14:51.273Z,10.40
2023-05-21T03:17:18.932Z,10.40
2023-05-21T03:19:45.798Z,10.30
2023-05-21T03:22:12.767Z,10.30
2023-05-21T03:24:39.889Z,10.30
2023-05-21T03:27:07.169Z,10.30
2023-05-21T03:29:34.700Z,10.30
2023-05-21T03:32:02.980Z,10.20
2023-05-21T03:34:31.331Z,10.30
2023-05-21T03:36:59.028Z,10.30
2023-05-21T03:39:26.847Z,10.30
2023-05-21T03:41:55.828Z,10.30
2023-05-21T03:44:34.700Z,10.30
2023-05-21T03:47:15.505Z,10.30
2023-05-21T03:49:42.966Z,10.30
2023-05-21T03:52:19.173Z,10.30
2023-05-21T03:54:49.003Z,10.30
2023-05-21T03:57:15.944Z,10.30
2023-05-21T03:59:43.746Z,10.30
2023-05-21T04:02:10.777Z,10.20
2023-05-21T04:04:37.949Z,10.30
2023-05-21T04:07:05.487Z,10.20
2023-05-21T04:09:32.718Z,10.20
2023-05-21T04:12:00.398Z,10.20
2023-05-21T04:14:27.321Z,10.20
2023-05-21T04:16:54.203Z,10.20
2023-05-21T04:19:21.981Z,10.20
2023-05-21T04:21:49.687Z,10.20
2023-05-21T04:24:16.681Z,10.20
2023-05-21T04:27:02.292Z,10.10
2023-05-21T04:29:31.840Z,10.10
2023-05-21T04:31:58.928Z,10.10
2023-05-21T04:34:25.907Z,10.10
2023-05-21T04:36:52.791Z,10.10
2023-05-21T04:39:19.713Z,10.10
2023-05-21T04:41:49.128Z,10.20
2023-05-21T04:44:16.035Z,10.20
2023-05-21T04:46:46.105Z,10.20
2023-05-21T04:49:13.693Z,10.20
2023-05-21T04:51:40.757Z,10.30
2023-05-21T04:54:08.009Z,10.30
2023-05-21T04:56:35.458Z,10.30
2023-05-21T04:59:05.328Z,10.30
2023-05-21T05:01:35.384Z,10.30
2023-05-21T05:04:02.515Z,10.30
2023-05-21T05:06:30.216Z,10.30
2023-05-21T05:08:57.204Z,10.40
2023-05-21T05:11:25.170Z,10.40
2023-05-21T05:13:52.565Z,10.50
2023-05-21T05:16:25.043Z,10.50
2023-05-21T05:18:52.855Z,10.50
2023-05-21T05:21:21.659Z,10.50
2023-05-21T05:23:48.620Z,10.50
2023-05-21T05:26:15.555Z,10.60
2023-05-21T05:28:42.663Z,10.50
2023-05-21T05:31:09.804Z,10.50
2023-05-21T05:33:36.841Z,10.60
2023-05-21T05:36:04.036Z,10.70
2023-05-21T05:38:31.236Z,10.80
2023-05-21T05:40:58.190Z,10.80
2023-05-21T05:43:26.417Z,10.80
2023-05-21T05:45:53.579Z,10.80
2023-05-21T05:48:20.600Z,10.90
2023-05-21T05:50:47.994Z,10.90
2023-05-21T05:53:15.246Z,10.90
2023-05-21T05:55:42.115Z,11.00
2023-05-21T05:58:09.026Z,11.00
2023-05-21T06:00:48.624Z,11.10
2023-05-21T06:03:15.890Z,11.20
2023-05-21T06:05:43.287Z,11.20
2023-05-21T06:08:10.748Z,11.30
2023-05-21T06:10:37.651Z,11.30
2023-05-21T06:13:04.572Z,11.40
2023-05-21T06:15:31.450Z,11.50
2023-05-21T06:17:58.321Z,11.60
2023-05-21T06:20:25.216Z,11.70
2023-05-21T06:22:52.313Z,11.80
2023-05-21T06:25:19.338Z,11.80
2023-05-21T06:27:46.490Z,11.90
2023-05-21T06:30:19.570Z,12.00
2023-05-21T06:32:46.659Z,12.00
2023-05-21T06:35:13.843Z,12.10
2023-05-21T06:37:41.024Z,12.20
2023-05-21T06:40:08.615Z,12.30
2023-05-21T06:42:36.364Z,12.30
2023-05-21T06:45:35.473Z,12.30
2023-05-21T06:48:12.196Z,12.30
2023-05-21T06:50:39.238Z,12.40
2023-05-21T06:53:08.034Z,12.50
2023-05-21T06:55:35.772Z,12.60
2023-05-21T06:58:25.941Z,12.60
2023-05-21T07:00:52.916Z,12.60
2023-05-21T07:03:20.645Z,12.60
2023-05-21T07:05:47.768Z,12.60
2023-05-21T07:08:15.556Z,12.70
2023-05-21T07:10:42.604Z,12.70
2023-05-21T07:13:09.652Z,12.90
2023-05-21T07:15:38.052Z,12.90
2023-05-21T07:18:05.396Z,12.90
2023-05-21T07:20:32.334Z,13.00
2023-05-21T07:23:05.597Z,13.00
2023-05-21T07:25:32.636Z,13.00
2023-05-21T07:27:59.672Z,13.10
2023-05-21T07:30:26.689Z,13.20
2023-05-21T07:32:53.995Z,13.20
2023-05-21T07:35:21.138Z,13.20
2023-05-21T07:37:48.885Z,13.30
2023-05-21T07:40:15.865Z,13.30
2023-05-21T07:42:43.655Z,13.40
2023-05-21T07:45:12.490Z,13.40
2023-05-21T07:47:43.112Z,13.40
2023-05-21T07:50:10.782Z,13.40
2023-05-21T07:52:37.843Z,13.50
2023-05-21T07:55:06.447Z,13.60
2023-05-21T07:57:35.893Z,13.60
2023-05-21T08:00:09.725Z,13.70
2023-05-21T08:02:42.138Z,13.70
2023-05-21T08:05:11.657Z,13.80
2023-05-21T08:07:38.643Z,13.80
2023-05-21T08:10:06.377Z,13.90
2023-05-21T08:12:33.288Z,14.00
2023-05-21T08:15:00.610Z,14.00
2023-05-21T08:17:28.557Z,14.10
2023-05-21T08:19:55.761Z,14.10
2023-05-21T08:22:22.954Z,14.20
2023-05-21T08:24:50.106Z,14.30
2023-05-21T08:27:16.962Z,14.40
2023-05-21T08:29:44.736Z,14.40
2023-05-21T08:32:11.788Z,14.40
2023-05-21T08:34:39.087Z,14.50
2023-05-21T08:37:29.507Z,14.60
2023-05-21T08:40:29.557Z,14.70
2023-05-21T08:42:57.529Z,14.80
2023-05-21T08:45:38.544Z,14.90
2023-05-21T08:48:06.332Z,14.90
2023-05-21T08:50:34.726Z,14.90
2023-05-21T08:53:15.871Z,15.00
2023-05-21T08:55:52.730Z,15.00
2023-05-21T08:58:20.430Z,15.00
2023-05-21T09:00:47.384Z,15.10
2023-05-21T09:03:17.997Z,15.20
2023-05-21T09:05:46.067Z,15.30
2023-05-21T09:08:19.892Z,15.40
2023-05-21T09:11:06.110Z,15.40
2023-05-21T09:13:42.417Z,15.50
2023-05-21T09:16:15.246Z,15.50
2023-05-21T09:18:43.196Z,15.60
2023-05-21T09:21:26.581Z,15.70
2023-05-21T09:24:00.317Z,15.80
2023-05-21T09:26:27.225Z,15.90
2023-05-21T09:29:01.611Z,16.00
2023-05-21T09:31:29.274Z,16.10
2023-05-21T09:33:56.377Z,16.30
2023-05-21T09:36:25.150Z,16.40
2023-05-21T09:38:52.408Z,16.30
2023-05-21T09:41:21.801Z,16.40
2023-05-21T09:43:49.542Z,16.30
2023-05-21T09:46:16.850Z,16.30
2023-05-21T09:48:43.839Z,16.40
2023-05-21T09:51:18.899Z,16.40
2023-05-21T09:53:48.803Z,16.40
2023-05-21T09:56:15.694Z,16.40
2023-05-21T09:58:42.621Z,16.50
2023-05-21T10:01:11.144Z,16.40
2023-05-21T10:03:39.840Z,16.30
2023-05-21T10:06:08.959Z,16.30
2023-05-21T10:08:37.418Z,16.40
2023-05-21T10:11:07.372Z,16.30
2023-05-21T10:13:35.481Z,16.30
2023-05-21T10:16:05.378Z,16.30
2023-05-21T10:18:32.481Z,16.30
2023-05-21T10:20:59.347Z,16.40
2023-05-21T10:23:26.170Z,16.40
2023-05-21T10:25:53.211Z,16.40
2023-05-21T10:28:20.075Z,16.40
2023-05-21T10:30:46.962Z,16.40
2023-05-21T10:33:17.600Z,16.50
2023-05-21T10:35:45.658Z,16.60
2023-05-21T10:38:12.904Z,16.60
2023-05-21T10:40:40.015Z,16.60
2023-05-21T10:43:21.958Z,16.60
2023-05-21T10:45:54.038Z,16.70
2023-05-21T10:48:24.999Z,16.70
2023-05-21T10:51:10.782Z,16.70
2023-05-21T10:53:43.028Z,16.80
2023-05-21T10:56:30.809Z,16.80
2023-05-21T10:59:08.073Z,16.90
2023-05-21T11:01:36.695Z,16.90
2023-05-21T11:04:06.706Z,16.80
2023-05-21T11:06:33.683Z,16.90
2023-05-21T11:09:14.778Z,17.00
2023-05-21T11:11:46.264Z,17.10
2023-05-21T11:14:43.105Z,17.20
2023-05-21T11:17:11.291Z,17.30
2023-05-21T11:19:41.313Z,17.40
2023-05-21T11:22:21.613Z,17.40
2023-05-21T11:24:51.211Z,17.50
2023-05-21T11:27:30.774Z,17.60
2023-05-21T11:29:57.741Z,17.50
2023-05-21T11:32:24.571Z,17.50
2023-05-21T11:34:51.712Z,17.50
2023-05-21T11:37:18.791Z,17.50
2023-05-21T11:39:45.847Z,17.60
2023-05-21T11:42:12.762Z,17.70
2023-05-21T11:44:47.760Z,17.60
2023-05-21T11:47:15.711Z,17.50
2023-05-21T11:49:42.521Z,17.60
2023-05-21T11:52:09.899Z,17.60
2023-05-21T11:54:48.407Z,17.70
2023-05-21T11:57:19.154Z,17.80
2023-05-21T11:59:46.931Z,17.70
2023-05-21T12:02:17.365Z,17.70
2023-05-21T12:04:45.246Z,17.80
2023-05-21T12:07:13.329Z,17.70
2023-05-21T12:09:40.863Z,17.70
2023-05-21T12:12:11.435Z,17.70
2023-05-21T12:14:38.332Z,17.70
2023-05-21T12:17:05.658Z,17.60
2023-05-21T12:19:35.950Z,17.60
2023-05-21T12:22:06.834Z,17.70
2023-05-21T12:24:34.137Z,17.70
2023-05-21T12:27:01.852Z,17.70
2023-05-21T12:29:32.072Z,17.70
2023-05-21T12:32:02.314Z,17.70
2023-05-21T12:34:46.226Z,17.70
2023-05-21T12:37:18.309Z,17.70
2023-05-21T12:39:45.864Z,17.80
2023-05-21T12:42:13.154Z,17.90
2023-05-21T12:44:49.010Z,17.90
2023-05-21T12:47:15.887Z,18.00
2023-05-21T12:49:44.767Z,18.20
2023-05-21T12:52:12.363Z,18.20
2023-05-21T12:54:40.283Z,18.30
2023-05-21T12:57:13.388Z,18.20
2023-05-21T13:00:00.009Z,18.00
2023-05-21T13:02:28.241Z,18.00
2023-05-21T13:04:58.444Z,18.00
2023-05-21T13:07:26.396Z,18.10
2023-05-21T13:09:53.694Z,18.10
2023-05-21T13:12:24.821Z,18.30
2023-05-21T13:14:52.588Z,18.40
2023-05-21T13:17:19.910Z,18.40
2023-05-21T13:20:09.488Z,18.40
2023-05-21T13:22:39.192Z,18.60
2023-05-21T13:25:07.140Z,18.70
2023-05-21T13:27:34.045Z,18.60
2023-05-21T13:30:02.014Z,18.60
2023-05-21T13:32:29.013Z,18.50
2023-05-21T13:34:55.961Z,18.50
2023-05-21T13:37:22.960Z,18.40
2023-05-21T13:39:50.096Z,18.40
2023-05-21T13:42:17.845Z,18.20
2023-05-21T13:44:44.681Z,18.20
2023-05-21T13:47:12.066Z,18.10
2023-05-21T13:49:39.091Z,18.20
2023-05-21T13:52:06.900Z,18.20
2023-05-21T13:54:33.812Z,18.30
2023-05-21T13:57:01.134Z,18.30
2023-05-21T13:59:28.054Z,18.30
2023-05-21T14:01:54.975Z,18.20
2023-05-21T14:04:21.836Z,18.20
2023-05-21T14:06:48.698Z,18.20
2023-05-21T14:09:15.898Z,18.20
2023-05-21T14:11:42.837Z,18.30
2023-05-21T14:14:09.703Z,18.20
2023-05-21T14:16:36.693Z,18.20
2023-05-21T14:19:03.811Z,18.20
2023-05-21T14:21:31.750Z,18.30
2023-05-21T14:23:58.635Z,18.30
2023-05-21T14:26:26.679Z,18.30
2023-05-21T14:28:53.611Z,18.40
2023-05-21T14:31:21.637Z,18.40
2023-05-21T14:33:48.656Z,18.40
2023-05-21T14:36:15.918Z,18.40
2023-05-21T14:38:42.841Z,18.40
2023-05-21T14:41:09.867Z,18.50
2023-05-21T14:43:36.769Z,18.40
2023-05-21T14:46:03.772Z,18.40
2023-05-21T14:48:30.635Z,18.30
2023-05-21T14:50:57.523Z,18.20
2023-05-21T14:53:24.421Z,18.30
2023-05-21T14:55:51.400Z,18.30
2023-05-21T14:58:18.251Z,18.20
2023-05-21T15:00:45.132Z,18.20
2023-05-21T15:03:12.955Z,18.20
2023-05-21T15:05:40.106Z,18.20
2023-05-21T15:08:08.103Z,18.10
2023-05-21T15:10:35.004Z,18.10
2023-05-21T15:13:02.041Z,18.20
2023-05-21T15:15:29.009Z,18.30
2023-05-21T15:17:57.767Z,18.30
2023-05-21T15:20:24.774Z,18.40
2023-05-21T15:22:54.902Z,18.40
2023-05-21T15:25:26.143Z,18.40
2023-05-21T15:27:53.057Z,18.40
2023-05-21T15:30:20.585Z,18.40
2023-05-21T15:32:47.396Z,18.40
2023-05-21T15:35:14.573Z,18.50
2023-05-21T15:37:43.479Z,18.40
2023-05-21T15:40:10.672Z,18.40
2023-05-21T15:42:37.548Z,18.70
2023-05-21T15:45:04.728Z,18.60
2023-05-21T15:47:31.583Z,18.60
2023-05-21T15:50:01.661Z,18.60
2023-05-21T15:52:28.472Z,18.60
2023-05-21T15:54:55.602Z,18.40
2023-05-21T15:57:22.470Z,18.40
2023-05-21T15:59:50.646Z,18.40
2023-05-21T16:02:17.576Z,18.30
2023-05-21T16:04:44.497Z,18.30
2023-05-21T16:07:11.397Z,18.30
2023-05-21T16:09:38.594Z,18.20
2023-05-21T16:12:05.878Z,18.20
2023-05-21T16:14:32.766Z,18.10
2023-05-21T16:16:59.752Z,18.10
2023-05-21T16:19:26.750Z,18.20
2023-05-21T16:21:53.753Z,18.30
2023-05-21T16:24:20.816Z,18.40
2023-05-21T16:26:49.456Z,18.40
2023-05-21T16:29:16.346Z,18.40
2023-05-21T16:31:43.309Z,18.30
2023-05-21T16:34:10.192Z,18.30
2023-05-21T16:36:38.346Z,18.30
2023-05-21T16:39:05.376Z,18.30
2023-05-21T16:41:32.300Z,18.20
2023-05-21T16:43:59.127Z,18.20
2023-05-21T16:46:26.047Z,18.10
2023-05-21T16:48:53.047Z,18.10
2023-05-21T16:51:19.918Z,18.00
2023-05-21T16:53:46.879Z,18.00
2023-05-21T16:56:13.755Z,18.00
2023-05-21T16:58:40.696Z,18.00
2023-05-21T17:01:07.733Z,17.90
2023-05-21T17:03:34.784Z,18.00
2023-05-21T17:06:01.737Z,18.00
2023-05-21T17:08:28.590Z,17.90
2023-05-21T17:10:55.983Z,17.90
2023-05-21T17:13:23.401Z,17.90
2023-05-21T17:15:51.245Z,17.90
2023-05-21T17:18:18.290Z,17.90
2023-05-21T17:20:45.270Z,17.90
2023-05-21T17:23:12.321Z,17.80
2023-05-21T17:25:39.889Z,17.80
2023-05-21T17:28:07.175Z,17.70
2023-05-21T17:30:34.246Z,17.60
2023-05-21T17:33:03.708Z,17.50
2023-05-21T17:35:34.104Z,17.50
2023-05-21T17:38:01.154Z,17.60
2023-05-21T17:40:29.180Z,17.60
2023-05-21T17:42:56.089Z,17.50
2023-05-21T17:45:23.095Z,17.50
2023-05-21T17:47:50.164Z,17.40
2023-05-21T17:50:17.072Z,17.40
2023-05-21T17:52:43.955Z,17.40
2023-05-21T17:55:10.866Z,17.30
2023-05-21T17:57:37.765Z,17.30
2023-05-21T18:00:06.756Z,17.30
2023-05-21T18:02:38.881Z,17.30
2023-05-21T18:05:05.950Z,17.30
2023-05-21T18:07:32.855Z,17.20
2023-05-21T18:09:59.731Z,17.20
2023-05-21T18:12:26.712Z,17.20
2023-05-21T18:14:53.576Z,17.20
2023-05-21T18:17:20.634Z,17.30
2023-05-21T18:19:47.484Z,17.20
2023-05-21T18:22:14.469Z,17.10
2023-05-21T18:24:41.380Z,17.10
2023-05-21T18:27:08.230Z,17.10
2023-05-21T18:29:35.117Z,17.10
2023-05-21T18:32:02.209Z,17.10
2023-05-21T18:34:29.143Z,17.10
2023-05-21T18:36:58.685Z,17.00
2023-05-21T18:39:27.708Z,16.90
2023-05-21T18:42:11.368Z,16.90
2023-05-21T18:44:39.598Z,16.90
2023-05-21T18:47:07.606Z,17.00
2023-05-21T18:49:36.114Z,16.90
2023-05-21T18:52:04.121Z,16.90
2023-05-21T18:54:31.209Z,16.90
2023-05-21T18:57:01.040Z,16.90
2023-05-21T18:59:28.604Z,16.80
2023-05-21T19:01:55.515Z,16.80
2023-05-21T19:04:22.542Z,16.80
2023-05-21T19:06:49.508Z,16.80
2023-05-21T19:09:16.609Z,16.80
2023-05-21T19:11:43.527Z,16.80
2023-05-21T19:14:10.668Z,16.80
2023-05-21T19:16:37.614Z,16.80
2023-05-21T19:19:04.667Z,16.80
2023-05-21T19:21:32.293Z,16.80
2023-05-21T19:23:59.230Z,16.80
2023-05-21T19:26:26.141Z,16.70
2023-05-21T19:28:54.429Z,16.60
2023-05-21T19:31:22.347Z,16.50
2023-05-21T19:33:49.422Z,16.50
2023-05-21T19:36:16.464Z,16.40
2023-05-21T19:38:49.862Z,16.30
2023-05-21T19:41:17.336Z,16.40
2023-05-21T19:43:44.885Z,16.30
2023-05-21T19:46:11.911Z,16.20
2023-05-21T19:48:38.980Z,16.10
2023-05-21T19:51:05.972Z,16.00
2023-05-21T19:53:32.830Z,16.00
2023-05-21T19:55:59.902Z,15.90
2023-05-21T19:58:29.519Z,15.80
2023-05-21T20:00:59.188Z,15.60
2023-05-21T20:03:26.835Z,15.60
2023-05-21T20:05:54.319Z,15.50
2023-05-21T20:08:21.477Z,15.50
2023-05-21T20:10:51.308Z,15.50
2023-05-21T20:13:19.198Z,15.50
2023-05-21T20:15:47.817Z,15.40
2023-05-21T20:18:15.591Z,15.40
2023-05-21T20:20:43.105Z,15.30
2023-05-21T20:23:10.042Z,15.30
2023-05-21T20:25:36.886Z,15.20
2023-05-21T20:28:05.086Z,15.10
2023-05-21T20:30:35.961Z,15.10
2023-05-21T20:33:03.250Z,15.20
2023-05-21T20:35:30.294Z,15.10
2023-05-21T20:37:57.333Z,15.20
2023-05-21T20:40:24.202Z,15.10
2023-05-21T20:42:53.446Z,15.10
2023-05-21T20:45:21.146Z,15.10
2023-05-21T20:47:49.977Z,15.10
2023-05-21T20:50:21.657Z,15.10
2023-05-21T20:52:48.473Z,15.10
2023-05-21T20:55:15.359Z,15.10
2023-05-21T20:57:42.383Z,15.00
2023-05-21T21:00:11.884Z,15.00
2023-05-21T21:02:39.233Z,15.00
2023-05-21T21:05:10.123Z,15.00
2023-05-21T21:07:37.411Z,15.00
2023-05-21T21:10:04.772Z,15.00
2023-05-21T21:12:31.618Z,15.00
2023-05-21T21:14:58.499Z,15.00
2023-05-21T21:17:25.497Z,15.10
2023-05-21T21:19:52.459Z,15.00
2023-05-21T21:22:19.402Z,15.10
2023-05-21T21:24:46.897Z,15.00
2023-05-21T21:27:13.733Z,15.00
2023-05-21T21:29:40.702Z,15.10
2023-05-21T21:32:07.855Z,15.10
2023-05-21T21:34:34.777Z,15.10
2023-05-21T21:37:01.627Z,15.00
2023-05-21T21:39:28.503Z,14.90
2023-05-21T21:41:55.485Z,14.90
2023-05-21T21:44:22.375Z,14.90
2023-05-21T21:46:49.540Z,14.90
2023-05-21T21:49:19.333Z,14.90
2023-05-21T21:51:46.314Z,14.90
2023-05-21T21:54:13.194Z,14.90
2023-05-21T21:56:40.133Z,14.80
2023-05-21T21:59:06.988Z,14.80
2023-05-21T22:01:34.041Z,14.70
2023-05-21T22:04:01.082Z,14.70
2023-05-21T22:06:28.672Z,14.70
2023-05-21T22:08:55.778Z,14.70
2023-05-21T22:11:22.824Z,14.70
2023-05-21T22:13:49.711Z,14.60
2023-05-21T22:16:16.671Z,14.60
2023-05-21T22:18:43.718Z,14.50
2023-05-21T22:21:14.190Z,14.50
2023-05-21T22:23:41.472Z,14.40
2023-05-21T22:26:09.148Z,14.30
2023-05-21T22:28:36.145Z,14.30
2023-05-21T22:31:03.356Z,14.30
2023-05-21T22:33:30.544Z,14.20
2023-05-21T22:35:58.087Z,14.20
2023-05-21T22:38:25.142Z,14.10
2023-05-21T22:40:51.999Z,14.00
2023-05-21T22:43:18.953Z,14.00
2023-05-21T22:45:46.425Z,13.90
2023-05-21T22:48:14.332Z,13.90
2023-05-21T22:50:41.473Z,13.80
2023-05-21T22:53:08.528Z,13.90
2023-05-21T22:55:35.405Z,13.80
2023-05-21T22:58:02.442Z,13.80
2023-05-21T23:00:29.293Z,13.80
2023-05-21T23:02:56.319Z,13.70
2023-05-21T23:05:23.249Z,13.80
2023-05-21T23:07:50.159Z,13.70
2023-05-21T23:10:17.131Z,13.70
2023-05-21T23:12:44.058Z,13.60
2023-05-21T23:15:11.247Z,13.60
2023-05-21T23:17:38.679Z,13.60
2023-05-21T23:20:09.262Z,13.50
2023-05-21T23:22:36.759Z,13.50
2023-05-21T23:25:04.027Z,13.50
2023-05-21T23:27:30.965Z,13.50
2023-05-21T23:29:57.824Z,13.50
2023-05-21T23:32:24.851Z,13.40
2023-05-21T23:34:51.728Z,13.40
2023-05-21T23:37:19.170Z,13.40
2023-05-21T23:39:49.465Z,13.30
2023-05-21T23:42:17.092Z,13.30
2023-05-21T23:44:44.066Z,13.20
2023-05-21T23:47:11.022Z,13.20
2023-05-21T23:49:38.902Z,13.20
2023-05-21T23:52:06.256Z,13.20
2023-05-21T23:54:33.199Z,13.10
2023-05-21T23:57:00.052Z,13.20
2023-05-21T23:59:26.925Z,13.10
